Time;durP1;ratioP1;P1;durP2;ratioP2;P2;SDS_P1;SDS_P2;PMS_P1;PMS_P2;Temp;Humidity;BMP_temperature;BMP_pressure;BME280_temperature;BME280_humidity;BME280_pressure;Samples;Min_cycle;Max_cycle;Signal;HPM_P1;HPM_P2
2024/01/10 00:00:58;;;;;;;0.15;0.15;;;;;;;-8.50;73.43;103065.88;15713861;28;20478;-51
2024/01/10 00:08:33;;;;;;;1.02;1.00;;;;;;;-8.15;72.73;103047.78;15722302;28;20095;-50
2024/01/10 00:16:07;;;;;;;0.50;0.50;;;;;;;-8.37;72.46;103052.63;15707126;28;20137;-48
2024/01/10 00:23:42;;;;;;;0.20;0.20;;;;;;;-8.32;72.89;103061.16;15721694;28;20044;-47
2024/01/10 00:31:15;;;;;;;0.52;0.52;;;;;;;-7.87;71.60;103053.25;15732925;28;20109;-51
2024/01/10 00:38:50;;;;;;;0.38;0.38;;;;;;;-7.11;68.63;103051.41;15744740;28;20076;-47
2024/01/10 00:46:23;;;;;;;1.80;1.65;;;;;;;-7.74;70.28;103047.72;15740828;28;20046;-46
2024/01/10 00:53:58;;;;;;;0.10;0.10;;;;;;;-7.85;70.52;103041.88;15706109;28;20049;-47
2024/01/10 01:01:31;;;;;;;0.15;0.15;;;;;;;-7.47;68.14;103042.72;15734337;28;20041;-45
2024/01/10 01:09:07;;;;;;;1.48;1.40;;;;;;;-7.72;70.14;103038.09;15732940;28;20485;-50
2024/01/10 01:16:44;;;;;;;3.42;2.80;;;;;;;-7.32;68.73;103046.69;15728461;28;20048;-47
2024/01/10 01:24:19;;;;;;;1.40;1.30;;;;;;;-7.74;70.36;103037.28;15739825;28;20425;-48
2024/01/10 01:31:53;;;;;;;0.10;0.10;;;;;;;-7.41;68.13;103026.94;15738615;28;20037;-45
2024/01/10 01:39:30;;;;;;;0.13;0.13;;;;;;;-7.22;67.41;103030.81;15718160;28;20168;-45
2024/01/10 01:47:04;;;;;;;0.10;0.10;;;;;;;-7.16;67.69;103016.72;15738162;28;20044;-51
2024/01/10 01:54:39;;;;;;;0.10;0.10;;;;;;;-7.26;67.59;103008.28;15736581;28;20484;-46
2024/01/10 02:02:13;;;;;;;0.25;0.25;;;;;;;-7.58;69.70;103014.31;15724226;28;20476;-45
2024/01/10 02:09:48;;;;;;;0.10;0.10;;;;;;;-7.44;67.65;103021.78;15709102;28;20374;-47
2024/01/10 02:17:24;;;;;;;0.70;0.68;;;;;;;-7.98;68.56;103009.16;15720412;28;20044;-46
2024/01/10 02:24:58;;;;;;;0.65;0.65;;;;;;;-7.58;67.62;102996.06;15709712;28;20041;-48
2024/01/10 02:32:34;;;;;;;0.15;0.15;;;;;;;-7.86;68.47;103002.81;15726899;28;20045;-44
2024/01/10 02:40:10;;;;;;;0.10;0.10;;;;;;;-7.89;67.96;103005.50;15729040;28;20041;-50
2024/01/10 02:47:44;;;;;;;0.10;0.10;;;;;;;-8.19;68.82;103004.47;15723269;28;20071;-49
2024/01/10 02:55:20;;;;;;;0.45;0.45;;;;;;;-8.31;70.08;103005.56;15725013;28;20068;-48
2024/01/10 03:02:57;;;;;;;10.75;5.10;;;;;;;-8.82;73.07;103004.03;15706150;28;20047;-46
2024/01/10 03:10:33;;;;;;;0.15;0.15;;;;;;;-9.16;74.66;102988.19;15720876;28;20032;-49
2024/01/10 03:18:06;;;;;;;0.10;0.10;;;;;;;-9.10;73.96;102979.41;15724289;28;20079;-49
2024/01/10 03:25:42;;;;;;;2.60;2.38;;;;;;;-9.03;74.14;102973.22;15722242;28;20044;-45
2024/01/10 03:33:19;;;;;;;0.10;0.10;;;;;;;-9.05;73.09;102980.19;15727447;28;20121;-47
2024/01/10 03:40:57;;;;;;;0.10;0.10;;;;;;;-7.77;69.81;102982.63;15709936;28;20044;-50
2024/01/10 03:48:31;;;;;;;0.32;0.32;;;;;;;-7.63;69.28;102992.72;15711226;28;20032;-45
2024/01/10 03:56:07;;;;;;;1.65;1.55;;;;;;;-7.57;68.12;102978.66;15698989;28;20041;-52
2024/01/10 04:03:42;;;;;;;0.20;0.20;;;;;;;-7.59;66.80;102983.06;15726257;28;20096;-48
2024/01/10 04:11:18;;;;;;;0.10;0.10;;;;;;;-7.42;66.95;102982.63;15696516;28;20064;-46
2024/01/10 04:18:51;;;;;;;0.10;0.10;;;;;;;-7.46;67.18;102979.22;15706833;28;20529;-46
2024/01/10 04:26:27;;;;;;;0.45;0.43;;;;;;;-8.82;70.56;102983.19;15728199;28;20051;-47
2024/01/10 04:34:01;;;;;;;0.10;0.10;;;;;;;-8.36;70.27;102979.63;15725008;28;20047;-47
2024/01/10 04:41:36;;;;;;;1.35;0.95;;;;;;;-9.14;72.85;102973.44;15695262;28;20113;-48
2024/01/10 04:49:11;;;;;;;0.10;0.10;;;;;;;-8.60;71.50;102960.22;15717374;28;20033;-51
2024/01/10 04:56:47;;;;;;;2.63;2.05;;;;;;;-8.62;71.56;102959.41;15726706;28;20063;-49
2024/01/10 05:04:22;;;;;;;2.47;2.28;;;;;;;-7.91;68.46;102955.16;15706746;28;20478;-46
2024/01/10 05:11:57;;;;;;;1.17;1.17;;;;;;;-8.25;70.12;102943.78;15697050;28;20513;-46
2024/01/10 05:19:32;;;;;;;0.10;0.10;;;;;;;-8.65;71.64;102961.19;15722655;28;20392;-46
2024/01/10 05:27:09;;;;;;;0.20;0.20;;;;;;;-8.96;72.22;102958.34;15730108;28;20044;-52
2024/01/10 05:34:45;;;;;;;6.72;2.47;;;;;;;-9.21;73.99;102955.38;15741649;28;20513;-52
2024/01/10 05:42:24;;;;;;;0.10;0.10;;;;;;;-9.45;74.67;102947.13;15735099;28;20041;-50
2024/01/10 05:49:59;;;;;;;1.67;1.58;;;;;;;-9.41;74.89;102951.41;15735831;28;20127;-49
2024/01/10 05:57:36;;;;;;;4.57;3.95;;;;;;;-9.36;74.53;102964.31;15718161;28;20094;-45
2024/01/10 06:05:14;;;;;;;0.10;0.10;;;;;;;-9.02;73.59;102961.94;15737008;28;20059;-47
2024/01/10 06:12:50;;;;;;;1.85;0.60;;;;;;;-9.15;73.41;102956.09;15734129;28;20044;-44
2024/01/10 06:20:25;;;;;;;0.10;0.10;;;;;;;-8.99;72.06;102954.09;15740527;28;20090;-47
2024/01/10 06:28:00;;;;;;;0.20;0.20;;;;;;;-9.09;72.00;102936.91;15739421;28;20617;-44
2024/01/10 06:35:36;;;;;;;3.95;2.30;;;;;;;-8.67;70.85;102942.13;15706584;28;20047;-48
2024/01/10 06:43:12;;;;;;;6.90;2.15;;;;;;;-7.89;69.05;102946.41;15739834;28;20043;-50
2024/01/10 06:50:48;;;;;;;0.30;0.30;;;;;;;-8.10;68.79;102932.16;15738663;28;20436;-48
2024/01/10 06:58:22;;;;;;;0.13;0.13;;;;;;;-8.82;71.23;102933.75;15738264;28;20055;-50
2024/01/10 07:05:58;;;;;;;0.10;0.10;;;;;;;-9.20;72.97;102950.13;15737851;28;20119;-48
2024/01/10 07:13:33;;;;;;;2.30;1.27;;;;;;;-9.13;72.89;102951.75;15738222;28;20482;-48
2024/01/10 07:21:09;;;;;;;0.10;0.10;;;;;;;-8.86;72.76;102945.16;15737661;28;20047;-50
2024/01/10 07:28:43;;;;;;;0.15;0.15;;;;;;;-9.16;72.66;102954.38;15736631;28;20131;-51
2024/01/10 07:36:17;;;;;;;0.10;0.10;;;;;;;-9.25;73.76;102958.00;15735850;28;20203;-50
2024/01/10 07:43:53;;;;;;;1.38;1.27;;;;;;;-8.88;73.19;102949.50;15735515;28;20127;-49
2024/01/10 07:51:26;;;;;;;0.73;0.73;;;;;;;-8.95;73.65;102940.13;15735040;28;20164;-47
2024/01/10 07:59:01;;;;;;;0.10;0.10;;;;;;;-8.03;70.89;102941.53;15734885;28;20094;-47
2024/01/10 08:06:35;;;;;;;2.78;2.47;;;;;;;-8.24;70.14;102924.66;15718238;28;20382;-46
2024/01/10 08:14:12;;;;;;;0.30;0.30;;;;;;;-8.45;72.35;102940.78;15718294;28;20059;-45
2024/01/10 08:21:47;;;;;;;0.20;0.20;;;;;;;-8.25;70.84;102937.72;15701122;28;20058;-45
2024/01/10 08:29:22;;;;;;;0.10;0.10;;;;;;;-7.86;70.75;102948.09;15734922;28;20528;-46
2024/01/10 08:36:57;;;;;;;1.20;1.10;;;;;;;-7.72;69.80;102943.41;15733723;28;20048;-49
2024/01/10 08:44:32;;;;;;;0.68;0.50;;;;;;;-7.42;68.32;102954.78;15733646;28;20037;-50
2024/01/10 08:52:08;;;;;;;0.10;0.10;;;;;;;-7.09;67.11;102936.50;15719728;28;20492;-48
2024/01/10 08:59:44;;;;;;;0.55;0.55;;;;;;;-6.62;65.56;102948.25;15745872;28;20041;-45
2024/01/10 09:07:19;;;;;;;0.45;0.45;;;;;;;-6.48;64.11;102953.03;15744804;28;20041;-48
2024/01/10 09:14:55;;;;;;;1.48;0.82;;;;;;;-5.79;63.26;102949.06;15744498;28;20055;-52
2024/01/10 09:22:31;;;;;;;1.60;1.50;;;;;;;-5.08;60.31;102951.91;15727385;28;20037;-47
2024/01/10 09:30:08;;;;;;;1.17;1.10;;;;;;;-4.29;57.76;102948.97;15741966;28;20058;-48
2024/01/10 09:37:42;;;;;;;1.42;1.38;;;;;;;-3.19;55.78;102947.03;15726363;28;20060;-49
2024/01/10 09:45:20;;;;;;;1.42;1.35;;;;;;;-1.23;51.00;102940.31;15724342;28;20095;-48
2024/01/10 09:52:57;;;;;;;5.60;1.60;;;;;;;-2.40;50.62;102941.72;15743906;28;20040;-46
2024/01/10 10:00:35;;;;;;;0.10;0.10;;;;;;;-1.82;49.32;102933.63;15745144;28;20121;-46
2024/01/10 10:08:11;;;;;;;3.13;2.60;;;;;;;-1.40;47.64;102935.91;15743011;28;20144;-47
2024/01/10 10:15:58;;;;;;;1.88;1.75;;;;;;;-0.62;47.82;102931.78;15744308;28;20036;-48
2024/01/10 10:23:31;;;;;;;1.42;1.33;;;;;;;-1.31;47.61;102930.19;15724388;28;20041;-48
2024/01/10 10:31:20;;;;;;;1.25;1.23;;;;;;;-0.37;47.20;102920.75;15727705;28;20045;-48
2024/01/10 10:38:55;;;;;;;1.45;1.15;;;;;;;-1.63;49.07;102916.03;15726891;28;20060;-46
2024/01/10 10:46:33;;;;;;;1.10;1.00;;;;;;;-0.17;47.32;102914.34;15742115;28;20165;-52
2024/01/10 10:54:08;;;;;;;1.50;1.42;;;;;;;-0.86;46.33;102901.47;15724361;28;20040;-49
2024/01/10 11:01:45;;;;;;;0.77;0.77;;;;;;;-1.21;47.61;102885.75;15742185;28;20083;-49
2024/01/10 11:09:22;;;;;;;0.80;0.60;;;;;;;-0.39;44.82;102887.44;15735013;28;20413;-48
2024/01/10 11:17:30;;;;;;;1.85;1.30;;;;;;;0.28;44.85;102891.50;15740208;28;20063;-52
2024/01/10 11:25:05;;;;;;;1.55;1.50;;;;;;;1.25;42.50;102884.66;15722304;28;20028;-48
2024/01/10 11:32:40;;;;;;;0.17;0.17;;;;;;;1.41;42.37;102867.81;15739339;28;20555;-47
2024/01/10 11:40:15;;;;;;;5.97;1.92;;;;;;;2.13;39.71;102871.03;15738962;28;20462;-47
2024/01/10 11:47:52;;;;;;;3.92;1.95;;;;;;;1.75;40.18;102871.78;15739153;28;20463;-48
2024/01/10 11:55:47;;;;;;;1.05;0.80;;;;;;;3.95;36.45;102861.63;15738762;28;20119;-45
2024/01/10 12:03:25;;;;;;;0.10;0.10;;;;;;;2.70;37.02;102862.72;15735466;28;20131;-50
2024/01/10 12:10:58;;;;;;;1.33;1.23;;;;;;;3.98;33.92;102857.91;15736541;28;20513;-46
2024/01/10 12:18:33;;;;;;;0.25;0.25;;;;;;;2.74;35.88;102866.84;15735663;28;20497;-46
2024/01/10 12:26:12;;;;;;;0.38;0.38;;;;;;;3.64;33.65;102844.47;15735721;28;20036;-47
2024/01/10 12:33:48;;;;;;;4.20;3.72;;;;;;;5.30;32.38;102828.00;15736222;28;20055;-48
2024/01/10 12:41:23;;;;;;;2.88;1.85;;;;;;;5.32;32.22;102801.28;15735581;28;20048;-51
2024/01/10 12:49:02;;;;;;;1.55;1.45;;;;;;;3.96;33.30;102804.84;15713149;28;20051;-51
2024/01/10 12:56:36;;;;;;;1.63;1.52;;;;;;;4.31;32.58;102823.44;15737008;28;20434;-48
2024/01/10 13:04:12;;;;;;;1.92;1.63;;;;;;;3.63;32.96;102810.03;15736131;28;20036;-47
2024/01/10 13:11:46;;;;;;;0.15;0.15;;;;;;;3.55;34.51;102816.78;15717813;28;20576;-50
2024/01/10 13:19:21;;;;;;;0.57;0.57;;;;;;;2.36;35.22;102797.94;15735741;28;20045;-49
2024/01/10 13:26:55;;;;;;;0.77;0.77;;;;;;;2.60;35.23;102792.72;15734998;28;20535;-53
2024/01/10 13:34:30;;;;;;;2.05;0.95;;;;;;;2.54;35.27;102794.00;15699082;28;21328;-48
2024/01/10 13:42:04;;;;;;;0.68;0.68;;;;;;;1.42;37.90;102798.06;15682102;28;20149;-48
2024/01/10 13:49:41;;;;;;;9.65;1.65;;;;;;;2.46;35.71;102786.59;15719313;28;20032;-50
2024/01/10 13:57:14;;;;;;;0.85;0.85;;;;;;;1.43;36.64;102794.47;15727223;28;20048;-49
2024/01/10 14:04:50;;;;;;;1.33;1.23;;;;;;;0.74;38.53;102797.06;15745253;28;20044;-51
2024/01/10 14:12:24;;;;;;;0.25;0.25;;;;;;;0.39;41.15;102793.97;15742530;28;20536;-48
2024/01/10 14:19:58;;;;;;;;;;;;;;;-0.19;41.32;102786.03;15726943;28;20048;-50
2024/01/10 14:27:32;;;;;;;0.17;0.17;;;;;;;-0.20;41.42;102786.97;15743141;28;20022;-48
2024/01/10 14:35:09;;;;;;;0.52;0.50;;;;;;;-0.39;42.18;102780.13;15743124;28;20071;-47
2024/01/10 14:42:42;;;;;;;0.10;0.10;;;;;;;0.61;40.74;102787.38;15724529;28;20228;-47
2024/01/10 14:50:17;;;;;;;;;;;;;;;0.70;40.21;102787.66;15742160;28;20036;-48
2024/01/10 14:57:50;;;;;;;3.05;1.77;;;;;;;0.46;41.89;102792.63;15724608;28;19969;-48
2024/01/10 15:05:26;;;;;;;;;;;;;;;0.37;42.05;102790.56;15741752;28;20098;-48
2024/01/10 15:13:01;;;;;;;2.72;1.25;;;;;;;0.21;43.19;102785.38;15724870;28;19920;-48
2024/01/10 15:20:37;;;;;;;1.58;1.48;;;;;;;0.12;43.20;102793.00;15724756;28;20059;-47
2024/01/10 15:28:10;;;;;;;0.20;0.20;;;;;;;-0.54;43.94;102754.63;15725263;28;20045;-46
2024/01/10 15:35:46;;;;;;;0.73;0.73;;;;;;;-0.50;45.17;102801.00;15702237;28;20131;-49
2024/01/10 15:43:19;;;;;;;1.95;1.83;;;;;;;-0.66;45.78;102801.00;15717081;28;20517;-51
2024/01/10 15:50:54;;;;;;;;;;;;;;;-0.87;46.19;102795.16;15735416;28;20128;-49
2024/01/10 15:58:29;;;;;;;0.73;0.73;;;;;;;-1.00;47.24;102798.56;15735634;28;19921;-50
2024/01/10 16:06:05;;;;;;;0.93;0.85;;;;;;;-1.21;47.38;102804.09;15716887;28;20044;-50
2024/01/10 16:13:38;;;;;;;1.95;1.85;;;;;;;-1.36;47.85;102802.25;15736713;28;20484;-50
2024/01/10 16:21:14;;;;;;;2.42;1.55;;;;;;;-1.70;47.24;102795.28;15735889;28;20318;-48
2024/01/10 16:28:48;;;;;;;0.40;0.40;;;;;;;-1.90;48.51;102802.44;15714835;28;20047;-48
2024/01/10 16:36:26;;;;;;;0.55;0.55;;;;;;;-1.99;49.12;102789.75;15731640;28;20116;-48
2024/01/10 16:44:00;;;;;;;9.63;1.23;;;;;;;-2.14;49.58;102785.28;15731664;28;20071;-49
2024/01/10 16:51:37;;;;;;;0.10;0.10;;;;;;;-2.26;51.19;102785.88;15725677;28;20478;-49
2024/01/10 16:59:12;;;;;;;1.20;0.77;;;;;;;-2.35;50.54;102777.50;15672060;28;20056;-47
2024/01/10 17:06:47;;;;;;;8.50;2.53;;;;;;;-2.29;50.96;102778.13;15712440;28;20040;-47
2024/01/10 17:14:21;;;;;;;1.15;1.15;;;;;;;-2.47;52.29;102772.00;15683661;28;20037;-49
2024/01/10 17:21:56;;;;;;;0.35;0.30;;;;;;;-2.57;51.96;102766.34;15644167;28;1072522;-50
2024/01/10 17:29:29;;;;;;;0.82;0.82;;;;;;;-2.71;52.55;102774.06;15683964;28;20040;-49
2024/01/10 17:37:04;;;;;;;0.17;0.17;;;;;;;-2.98;55.13;102761.31;15683255;28;20303;-49
2024/01/10 17:44:41;;;;;;;0.75;0.75;;;;;;;-3.31;55.57;102758.50;15713705;28;20127;-50
2024/01/10 17:52:16;;;;;;;3.80;2.17;;;;;;;-3.50;55.96;102747.97;15733033;28;20537;-49
2024/01/10 17:59:52;;;;;;;0.10;0.10;;;;;;;-3.64;57.11;102745.13;15741329;28;20650;-52
2024/01/10 18:07:27;;;;;;;3.72;1.67;;;;;;;-3.61;56.64;102745.00;15714347;28;20051;-47
2024/01/10 18:15:01;;;;;;;4.90;4.18;;;;;;;-3.80;57.65;102750.22;15740548;28;20485;-49
2024/01/10 18:22:36;;;;;;;0.40;0.38;;;;;;;-3.74;58.29;102759.56;15730110;22;20045;-53
2024/01/10 18:30:10;;;;;;;0.60;0.55;;;;;;;-4.12;59.39;102759.47;15656123;28;20618;-53
2024/01/10 18:37:45;;;;;;;0.75;0.75;;;;;;;-3.99;58.75;102762.44;15667797;28;20049;-53
2024/01/10 18:45:19;;;;;;;0.38;0.38;;;;;;;-4.20;59.66;102751.91;15649903;28;20033;-50
2024/01/10 18:52:55;;;;;;;2.95;2.75;;;;;;;-4.29;59.35;102754.97;15678580;28;20047;-51
2024/01/10 19:00:28;;;;;;;0.08;0.08;;;;;;;-4.39;60.47;102751.00;15660665;28;20037;-55
2024/01/10 19:08:04;;;;;;;1.30;0.95;;;;;;;-4.38;59.71;102747.47;15652216;28;20045;-51
2024/01/10 19:15:37;;;;;;;0.88;0.88;;;;;;;-4.37;60.33;102754.41;15678245;28;20068;-52
2024/01/10 19:23:12;;;;;;;0.10;0.10;;;;;;;-4.49;61.13;102761.00;15657754;28;20113;-53
2024/01/10 19:30:45;;;;;;;1.65;1.55;;;;;;;-4.53;60.26;102771.69;15679489;28;20554;-53
2024/01/10 19:38:20;;;;;;;0.25;0.25;;;;;;;-4.62;60.78;102762.41;15681407;28;20044;-55
2024/01/10 19:45:54;;;;;;;0.30;0.30;;;;;;;-4.69;60.48;102761.81;15636954;28;20041;-52
2024/01/10 19:53:28;;;;;;;0.65;0.63;;;;;;;-4.98;61.57;102764.75;15671657;28;20045;-51
2024/01/10 20:01:02;;;;;;;0.60;0.60;;;;;;;-4.88;61.56;102774.81;15667360;28;20037;-52
2024/01/10 20:08:37;;;;;;;0.10;0.10;;;;;;;-5.09;62.47;102767.78;15657009;28;20041;-56
2024/01/10 20:16:10;;;;;;;0.85;0.85;;;;;;;-4.92;62.61;102794.16;15660636;28;20049;-55
2024/01/10 20:23:45;;;;;;;3.95;2.65;;;;;;;-5.17;63.17;102783.78;15682687;28;20077;-53
2024/01/10 20:31:18;;;;;;;1.73;1.63;;;;;;;-5.10;63.18;102792.25;15680209;28;20050;-54
2024/01/10 20:38:53;;;;;;;1.75;1.65;;;;;;;-5.25;63.04;102785.84;15678603;28;20350;-53
2024/01/10 20:46:27;;;;;;;0.10;0.10;;;;;;;-5.51;63.93;102775.47;15656454;28;20049;-55
2024/01/10 20:54:02;;;;;;;3.63;3.35;;;;;;;-5.67;64.17;102781.28;15671490;28;20131;-51
2024/01/10 21:01:35;;;;;;;0.20;0.20;;;;;;;-5.59;63.42;102811.56;15688333;28;20044;-51
2024/01/10 21:09:11;;;;;;;0.15;0.15;;;;;;;-5.69;63.71;102793.56;15654981;28;20080;-54
2024/01/10 21:16:46;;;;;;;0.47;0.47;;;;;;;-6.09;65.14;102808.97;15685394;28;20520;-52
2024/01/10 21:24:21;;;;;;;0.40;0.40;;;;;;;-5.82;64.54;102804.53;15701967;28;20140;-52
2024/01/10 21:31:55;;;;;;;0.10;0.10;;;;;;;-6.30;65.96;102798.31;15637741;28;20064;-52
2024/01/10 21:39:31;;;;;;;0.13;0.13;;;;;;;-5.99;64.87;102812.97;15658531;28;20072;-52
2024/01/10 21:47:06;;;;;;;1.65;1.55;;;;;;;-6.17;65.48;102810.06;15675898;28;20029;-57
2024/01/10 21:54:41;;;;;;;0.60;0.60;;;;;;;-6.18;65.25;102803.13;15664130;28;20045;-51
2024/01/10 22:02:14;;;;;;;0.10;0.10;;;;;;;-6.30;65.96;102811.38;15681614;28;20107;-51
2024/01/10 22:09:49;;;;;;;3.13;2.25;;;;;;;-6.30;65.86;102803.53;15682878;28;20095;-53
2024/01/10 22:17:23;;;;;;;3.83;2.83;;;;;;;-6.27;65.99;102798.22;15680900;28;20049;-54
2024/01/10 22:24:58;;;;;;;0.90;0.90;;;;;;;-6.39;65.89;102797.75;15678666;28;20041;-51
2024/01/10 22:32:31;;;;;;;0.90;0.90;;;;;;;-6.33;65.38;102808.03;15662426;28;20045;-56
2024/01/10 22:40:10;;;;;;;0.30;0.30;;;;;;;-6.68;65.73;102787.34;15678895;28;20063;-55
2024/01/10 22:47:45;;;;;;;0.30;0.30;;;;;;;-6.87;66.12;102794.03;15660592;28;20045;-51
2024/01/10 22:55:24;;;;;;;1.45;1.00;;;;;;;-6.72;66.38;102788.34;15677573;28;20102;-53
2024/01/10 23:02:59;;;;;;;2.65;2.45;;;;;;;-6.79;66.63;102789.44;15674536;28;20401;-52
2024/01/10 23:10:35;;;;;;;0.10;0.10;;;;;;;-7.09;66.84;102792.97;15675343;28;20151;-52
2024/01/10 23:18:08;;;;;;;0.10;0.10;;;;;;;-6.59;65.83;102765.31;15682804;28;20048;-51
2024/01/10 23:25:43;;;;;;;0.40;0.40;;;;;;;-6.85;66.48;102779.19;15682561;28;20124;-51
2024/01/10 23:33:20;;;;;;;0.10;0.10;;;;;;;-6.81;66.60;102785.16;15659820;28;20048;-51
2024/01/10 23:40:55;;;;;;;1.50;1.45;;;;;;;-6.56;65.89;102777.41;15674548;28;20064;-51
2024/01/10 23:48:29;;;;;;;0.30;0.30;;;;;;;-6.30;66.48;102764.31;15656238;28;20346;-51
2024/01/10 23:56:05;;;;;;;1.05;1.00;;;;;;;-6.13;66.59;102755.06;15656756;28;20264;-51
